createdAt,value
2017-01-06T00:00:30.692Z,18.18
2017-01-06T00:01:11.323Z,18.21
2017-01-06T00:01:51.962Z,18.21
2017-01-06T00:02:32.652Z,18.27
2017-01-06T00:03:13.286Z,18.28
2017-01-06T00:03:53.921Z,18.27
2017-01-06T00:04:34.549Z,18.28
2017-01-06T00:05:15.188Z,18.27
2017-01-06T00:05:55.824Z,18.28
2017-01-06T00:06:36.475Z,18.28
2017-01-06T00:07:17.140Z,18.34
2017-01-06T00:07:57.780Z,18.24
2017-01-06T00:08:38.486Z,18.27
2017-01-06T00:09:19.142Z,18.28
2017-01-06T00:09:59.803Z,18.25
2017-01-06T00:10:40.559Z,18.28
2017-01-06T00:11:21.201Z,18.28
2017-01-06T00:12:01.860Z,18.28
2017-01-06T00:12:42.586Z,18.27
2017-01-06T00:13:23.259Z,18.25
2017-01-06T00:14:03.930Z,18.29
2017-01-06T00:14:44.662Z,18.28
2017-01-06T00:15:25.312Z,18.25
2017-01-06T00:16:05.956Z,18.25
2017-01-06T00:16:46.643Z,18.27
2017-01-06T00:17:27.286Z,18.29
2017-01-06T00:18:07.931Z,18.19
2017-01-06T00:18:48.591Z,18.33
2017-01-06T00:19:29.239Z,18.25
2017-01-06T00:20:09.875Z,18.27
2017-01-06T00:20:50.499Z,18.29
2017-01-06T00:21:31.247Z,18.27
2017-01-06T00:22:12.018Z,18.28
2017-01-06T00:22:52.666Z,18.25
2017-01-06T00:23:33.326Z,18.28
2017-01-06T00:24:14.044Z,18.28
2017-01-06T00:24:54.732Z,18.28
2017-01-06T00:25:35.373Z,18.27
2017-01-06T00:26:16.084Z,18.27
2017-01-06T00:26:56.713Z,18.22
2017-01-06T00:27:37.391Z,18.24
2017-01-06T00:28:18.015Z,18.22
2017-01-06T00:28:58.652Z,18.13
2017-01-06T00:29:39.294Z,18.13
2017-01-06T00:30:20.044Z,18.17
2017-01-06T00:31:00.674Z,18.18
2017-01-06T00:31:41.306Z,18.15
2017-01-06T00:32:21.992Z,18.1
2017-01-06T00:33:02.632Z,18.28
2017-01-06T00:33:43.303Z,18.1
2017-01-06T00:34:23.898Z,18.15
2017-01-06T00:35:04.531Z,18.21
2017-01-06T00:35:45.176Z,18.21
2017-01-06T00:36:25.798Z,18.22
2017-01-06T00:37:06.430Z,18.19
2017-01-06T00:37:47.079Z,18.22
2017-01-06T00:38:27.714Z,18.19
2017-01-06T00:39:08.356Z,18.19
2017-01-06T00:39:49.005Z,18.19
2017-01-06T00:40:29.645Z,18.27
2017-01-06T00:41:10.329Z,18.21
2017-01-06T00:41:50.957Z,18.18
2017-01-06T00:42:31.593Z,18.25
2017-01-06T00:43:12.250Z,18.18
2017-01-06T00:43:52.906Z,18.21
2017-01-06T00:44:33.524Z,18.21
2017-01-06T00:45:14.167Z,18.21
2017-01-06T00:45:54.795Z,18.22
2017-01-06T00:46:35.444Z,18.21
2017-01-06T00:47:16.104Z,18.21
2017-01-06T00:47:56.736Z,18.1
2017-01-06T00:48:37.377Z,18.15
2017-01-06T00:49:18.028Z,18.17
2017-01-06T00:49:58.676Z,18.07
2017-01-06T00:50:39.321Z,18.1
2017-01-06T00:51:20.013Z,18.18
2017-01-06T00:52:00.644Z,18.1
2017-01-06T00:52:41.290Z,18.18
2017-01-06T00:53:21.935Z,18.18
2017-01-06T00:54:02.562Z,18.21
2017-01-06T00:54:43.195Z,18.21
2017-01-06T00:55:23.833Z,18.24
2017-01-06T00:56:04.464Z,18.13
2017-01-06T00:56:45.090Z,18.17
2017-01-06T00:57:25.805Z,18.21
2017-01-06T00:58:06.429Z,18.21
2017-01-06T00:58:47.071Z,18.22
2017-01-06T00:59:27.765Z,18.13
2017-01-06T01:00:08.420Z,18.12
2017-01-06T01:00:49.047Z,18.19
2017-01-06T01:01:29.689Z,18.24
2017-01-06T01:02:10.447Z,18.21
2017-01-06T01:02:51.078Z,18.1
2017-01-06T01:03:31.740Z,18.12
2017-01-06T01:04:12.473Z,18.13
2017-01-06T01:04:53.107Z,18.06
2017-01-06T01:05:33.741Z,18.21
2017-01-06T01:06:14.458Z,18.17
2017-01-06T01:06:55.099Z,18.17
2017-01-06T01:07:35.752Z,18.17
2017-01-06T01:08:16.401Z,18.15
2017-01-06T01:08:57.031Z,18.12
2017-01-06T01:09:37.660Z,18.15
2017-01-06T01:10:18.295Z,18.21
2017-01-06T01:10:58.934Z,18.15
2017-01-06T01:11:39.570Z,18.17
2017-01-06T01:12:20.216Z,18.17
2017-01-06T01:13:00.846Z,18.18
2017-01-06T01:13:41.487Z,18.1
2017-01-06T01:14:22.130Z,18.12
2017-01-06T01:15:02.803Z,18.1
2017-01-06T01:15:43.440Z,18.18
2017-01-06T01:16:24.092Z,18.15
2017-01-06T01:17:04.721Z,18.12
2017-01-06T01:17:45.354Z,18.15
2017-01-06T01:18:25.994Z,18.12
2017-01-06T01:19:06.628Z,18.18
2017-01-06T01:19:47.258Z,18.13
2017-01-06T01:20:27.887Z,18.13
2017-01-06T01:21:08.554Z,18.15
2017-01-06T01:21:49.197Z,18.17
2017-01-06T01:22:29.834Z,18.1
2017-01-06T01:23:10.538Z,18.04
2017-01-06T01:23:51.172Z,18.12
2017-01-06T01:24:31.804Z,18.21
2017-01-06T01:25:12.478Z,18.1
2017-01-06T01:25:53.104Z,18.1
2017-01-06T01:26:33.749Z,18.13
2017-01-06T01:27:14.434Z,18.21
2017-01-06T01:27:55.068Z,18.17
2017-01-06T01:28:35.711Z,18.1
2017-01-06T01:29:16.403Z,18.13
2017-01-06T01:29:57.042Z,18.15
2017-01-06T01:30:37.682Z,18.09
2017-01-06T01:31:18.360Z,18.07
2017-01-06T01:31:59.014Z,18.15
2017-01-06T01:32:39.651Z,18.13
2017-01-06T01:33:20.371Z,18.18
2017-01-06T01:34:01.004Z,18.18
2017-01-06T01:34:41.660Z,18.12
2017-01-06T01:35:22.300Z,18.12
2017-01-06T01:36:02.929Z,18.19
2017-01-06T01:36:43.571Z,18.1
2017-01-06T01:37:24.203Z,18.13
2017-01-06T01:38:04.829Z,18.21
2017-01-06T01:38:45.479Z,18.03
2017-01-06T01:39:26.121Z,18.18
2017-01-06T01:40:06.794Z,18.13
2017-01-06T01:40:47.445Z,18.04
2017-01-06T01:41:28.073Z,18.12
2017-01-06T01:42:08.696Z,18.02
2017-01-06T01:42:49.340Z,18.09
2017-01-06T01:43:29.985Z,18.07
2017-01-06T01:44:10.737Z,18.15
2017-01-06T01:44:51.385Z,18.15
2017-01-06T01:45:32.036Z,18.04
2017-01-06T01:46:12.673Z,18.07
2017-01-06T01:46:53.307Z,18.13
2017-01-06T01:47:33.960Z,18.09
2017-01-06T01:48:14.690Z,18.1
2017-01-06T01:48:55.321Z,18.12
2017-01-06T01:49:35.961Z,18.13
2017-01-06T01:50:16.623Z,18.12
2017-01-06T01:50:57.268Z,18.13
2017-01-06T01:51:37.909Z,18.13
2017-01-06T01:52:18.538Z,18.13
2017-01-06T01:52:59.186Z,18.1
2017-01-06T01:53:39.803Z,18.13
2017-01-06T01:54:20.438Z,18.06
2017-01-06T01:55:01.135Z,18.12
2017-01-06T01:55:41.778Z,18.1
2017-01-06T01:56:22.410Z,18.04
2017-01-06T01:57:03.061Z,18.1
2017-01-06T01:57:43.704Z,18.12
2017-01-06T01:58:24.351Z,18.1
2017-01-06T01:59:05.006Z,18.12
2017-01-06T01:59:45.650Z,18.13
2017-01-06T02:00:26.279Z,18.09
2017-01-06T02:01:06.915Z,18.1
2017-01-06T02:01:47.567Z,18.04
2017-01-06T02:02:28.303Z,18.07
2017-01-06T02:03:08.927Z,18.1
2017-01-06T02:03:49.573Z,18.1
2017-01-06T02:04:30.193Z,18.12
2017-01-06T02:05:10.877Z,18.15
2017-01-06T02:05:51.542Z,18.09
2017-01-06T02:06:32.191Z,18.09
2017-01-06T02:07:12.841Z,18.07
2017-01-06T02:07:53.495Z,18.09
2017-01-06T02:08:34.147Z,18.07
2017-01-06T02:09:14.801Z,18.06
2017-01-06T02:09:55.461Z,18.07
2017-01-06T02:10:36.113Z,18.04
2017-01-06T02:11:16.765Z,18.06
2017-01-06T02:11:57.409Z,18.06
2017-01-06T02:12:38.067Z,18.09
2017-01-06T02:13:18.841Z,18.1
2017-01-06T02:13:59.478Z,18.13
2017-01-06T02:14:40.133Z,18.1
2017-01-06T02:15:20.785Z,18.1
2017-01-06T02:16:01.434Z,18.18
2017-01-06T02:16:42.071Z,18.1
2017-01-06T02:17:22.744Z,18.06
2017-01-06T02:18:03.393Z,18.06
2017-01-06T02:18:44.022Z,18.03
2017-01-06T02:19:24.656Z,18.06
2017-01-06T02:20:05.285Z,18.09
2017-01-06T02:20:45.922Z,18.04
2017-01-06T02:21:26.551Z,18.06
2017-01-06T02:22:07.201Z,18.07
2017-01-06T02:22:47.831Z,18.09
2017-01-06T02:23:28.478Z,18.13
2017-01-06T02:24:09.183Z,18.13
2017-01-06T02:24:49.818Z,18.17
2017-01-06T02:25:30.449Z,18.09
2017-01-06T02:26:11.084Z,18.13
2017-01-06T02:26:51.716Z,18.03
2017-01-06T02:27:32.433Z,18.1
2017-01-06T02:28:13.085Z,18.04
2017-01-06T02:28:53.739Z,18.09
2017-01-06T02:29:34.387Z,18.04
2017-01-06T02:30:15.081Z,18.1
2017-01-06T02:30:55.713Z,18.06
2017-01-06T02:31:36.350Z,18.07
2017-01-06T02:32:17.006Z,18.06
2017-01-06T02:32:57.644Z,18.06
2017-01-06T02:33:38.262Z,18.1
2017-01-06T02:34:18.964Z,18.12
2017-01-06T02:34:59.740Z,18.06
2017-01-06T02:35:40.394Z,18.09
2017-01-06T02:36:21.032Z,18.06
2017-01-06T02:37:01.760Z,18.09
2017-01-06T02:37:42.392Z,18.02
2017-01-06T02:38:23.040Z,18.09
2017-01-06T02:39:03.670Z,18.03
2017-01-06T02:39:44.314Z,18.02
2017-01-06T02:40:24.958Z,18.04
2017-01-06T02:41:05.591Z,18.07
2017-01-06T02:41:46.222Z,18.07
2017-01-06T02:42:26.862Z,18.1
2017-01-06T02:43:07.506Z,18.03
2017-01-06T02:43:48.214Z,18.02
2017-01-06T02:44:28.863Z,18.07
2017-01-06T02:45:09.512Z,18.03
2017-01-06T02:45:50.175Z,18.07
2017-01-06T02:46:30.823Z,18
2017-01-06T02:47:11.490Z,18.02
2017-01-06T02:47:52.216Z,18.03
2017-01-06T02:48:32.851Z,17.99
2017-01-06T02:49:13.493Z,18
2017-01-06T02:49:54.140Z,18.09
2017-01-06T02:50:34.763Z,17.95
2017-01-06T02:51:15.516Z,17.94
2017-01-06T02:51:56.149Z,18.03
2017-01-06T02:52:36.787Z,18.04
2017-01-06T02:53:17.417Z,18.04
2017-01-06T02:53:58.067Z,18
2017-01-06T02:54:38.718Z,17.94
2017-01-06T02:55:19.364Z,18.02
2017-01-06T02:56:00.002Z,18.04
2017-01-06T02:56:40.635Z,18.07
2017-01-06T02:57:21.286Z,18.03
2017-01-06T02:58:01.921Z,18.03
2017-01-06T02:58:42.556Z,18
2017-01-06T02:59:23.198Z,18.02
2017-01-06T03:00:03.831Z,18.07
2017-01-06T03:00:44.459Z,18.09
2017-01-06T03:01:25.100Z,18.04
2017-01-06T03:02:05.774Z,17.95
2017-01-06T03:02:46.413Z,17.94
2017-01-06T03:03:27.043Z,18.03
2017-01-06T03:04:08.608Z,18
2017-01-06T03:04:49.238Z,17.97
2017-01-06T03:05:29.877Z,17.94
2017-01-06T03:06:10.514Z,18
2017-01-06T03:06:51.139Z,17.94
2017-01-06T03:07:31.845Z,18.03
2017-01-06T03:08:12.501Z,18.02
2017-01-06T03:08:53.148Z,17.99
2017-01-06T03:09:33.775Z,18.04
2017-01-06T03:10:14.428Z,18.03
2017-01-06T03:10:55.115Z,18
2017-01-06T03:11:35.774Z,18
2017-01-06T03:12:16.425Z,17.97
2017-01-06T03:12:57.070Z,17.91
2017-01-06T03:13:37.743Z,17.91
2017-01-06T03:14:18.383Z,17.94
2017-01-06T03:14:59.131Z,17.95
2017-01-06T03:15:39.779Z,17.95
2017-01-06T03:16:20.451Z,17.89
2017-01-06T03:17:01.166Z,17.91
2017-01-06T03:17:41.843Z,17.89
2017-01-06T03:18:22.472Z,17.97
2017-01-06T03:19:03.444Z,17.89
2017-01-06T03:19:44.154Z,17.94
2017-01-06T03:20:24.819Z,17.87
2017-01-06T03:21:05.453Z,17.89
2017-01-06T03:21:46.101Z,17.89
2017-01-06T03:22:26.737Z,17.92
2017-01-06T03:23:07.413Z,18
2017-01-06T03:23:48.052Z,17.95
2017-01-06T03:24:28.767Z,17.89
2017-01-06T03:25:09.392Z,17.88
2017-01-06T03:25:50.039Z,17.88
2017-01-06T03:26:30.856Z,17.92
2017-01-06T03:27:11.338Z,17.89
2017-01-06T03:27:52.004Z,17.89
2017-01-06T03:28:32.652Z,17.87
2017-01-06T03:29:13.345Z,17.89
2017-01-06T03:29:53.955Z,17.88
2017-01-06T03:30:34.618Z,17.94
2017-01-06T03:31:15.278Z,17.89
2017-01-06T03:31:55.931Z,17.88
2017-01-06T03:32:36.657Z,17.91
2017-01-06T03:33:17.276Z,17.89
2017-01-06T03:33:57.926Z,17.91
2017-01-06T03:34:38.575Z,17.95
2017-01-06T03:35:19.203Z,17.89
2017-01-06T03:35:59.839Z,17.92
2017-01-06T03:36:40.490Z,17.88
2017-01-06T03:37:21.139Z,17.89
2017-01-06T03:38:01.790Z,17.89
2017-01-06T03:38:42.507Z,17.91
2017-01-06T03:39:23.147Z,17.88
2017-01-06T03:40:03.810Z,17.89
2017-01-06T03:40:44.457Z,17.94
2017-01-06T03:41:25.248Z,17.89
2017-01-06T03:42:05.907Z,17.95
2017-01-06T03:42:46.534Z,17.88
2017-01-06T03:43:27.227Z,17.95
2017-01-06T03:44:07.858Z,17.92
2017-01-06T03:44:48.493Z,17.89
2017-01-06T03:45:29.118Z,17.91
2017-01-06T03:46:09.747Z,17.95
2017-01-06T03:46:50.392Z,17.92
2017-01-06T03:47:31.087Z,17.92
2017-01-06T03:48:11.733Z,17.88
2017-01-06T03:48:52.361Z,17.89
2017-01-06T03:49:32.998Z,17.89
2017-01-06T03:50:13.655Z,17.92
2017-01-06T03:50:54.304Z,17.91
2017-01-06T03:51:34.957Z,17.91
2017-01-06T03:52:15.609Z,17.95
2017-01-06T03:52:56.255Z,17.87
2017-01-06T03:53:36.999Z,17.94
2017-01-06T03:54:17.641Z,17.88
2017-01-06T03:54:58.281Z,17.89
2017-01-06T03:55:38.943Z,17.94
2017-01-06T03:56:19.574Z,17.89
2017-01-06T03:57:00.273Z,17.89
2017-01-06T03:57:40.882Z,17.97
2017-01-06T03:58:21.500Z,17.92
2017-01-06T03:59:02.238Z,17.89
2017-01-06T03:59:42.890Z,17.97
2017-01-06T04:00:23.535Z,17.94
2017-01-06T04:01:04.193Z,17.85
2017-01-06T04:01:44.830Z,17.89
2017-01-06T04:02:25.455Z,17.89
2017-01-06T04:03:06.094Z,17.89
2017-01-06T04:03:46.730Z,17.92
2017-01-06T04:04:27.369Z,17.95
2017-01-06T04:05:07.995Z,17.88
2017-01-06T04:05:48.635Z,17.89
2017-01-06T04:06:29.308Z,17.94
2017-01-06T04:07:09.928Z,17.95
2017-01-06T04:07:50.555Z,17.89
2017-01-06T04:08:31.198Z,17.92
2017-01-06T04:09:11.844Z,17.94
2017-01-06T04:09:52.486Z,17.95
2017-01-06T04:10:33.111Z,17.88
2017-01-06T04:11:13.742Z,17.95
2017-01-06T04:11:54.384Z,17.89
2017-01-06T04:12:35.006Z,17.92
2017-01-06T04:13:15.646Z,17.88
2017-01-06T04:13:56.310Z,17.88
2017-01-06T04:14:36.924Z,17.92
2017-01-06T04:15:17.553Z,17.89
2017-01-06T04:15:58.187Z,17.89
2017-01-06T04:16:38.883Z,17.88
2017-01-06T04:17:19.515Z,17.91
2017-01-06T04:18:00.144Z,17.94
2017-01-06T04:18:40.875Z,17.85
2017-01-06T04:19:21.498Z,17.84
2017-01-06T04:20:02.130Z,17.85
2017-01-06T04:20:42.766Z,17.91
2017-01-06T04:21:23.470Z,17.84
2017-01-06T04:22:04.112Z,17.89
2017-01-06T04:22:44.746Z,17.89
2017-01-06T04:23:25.383Z,17.78
2017-01-06T04:24:06.012Z,17.81
2017-01-06T04:24:46.664Z,17.81
2017-01-06T04:25:27.305Z,17.81
2017-01-06T04:26:07.926Z,17.88
2017-01-06T04:26:48.560Z,17.84
2017-01-06T04:27:29.294Z,17.87
2017-01-06T04:28:09.925Z,17.92
2017-01-06T04:28:50.646Z,17.79
2017-01-06T04:29:31.280Z,17.81
2017-01-06T04:30:11.973Z,17.84
2017-01-06T04:30:52.630Z,17.85
2017-01-06T04:31:33.286Z,17.85
2017-01-06T04:32:13.955Z,17.84
2017-01-06T04:32:54.592Z,17.84
2017-01-06T04:33:35.217Z,17.82
2017-01-06T04:34:15.900Z,17.82
2017-01-06T04:34:56.550Z,17.88
2017-01-06T04:35:37.182Z,17.82
2017-01-06T04:36:17.819Z,17.84
2017-01-06T04:36:58.447Z,17.84
2017-01-06T04:37:39.091Z,17.78
2017-01-06T04:38:19.725Z,17.81
2017-01-06T04:39:00.351Z,17.74
2017-01-06T04:39:40.976Z,17.87
2017-01-06T04:40:21.608Z,17.73
2017-01-06T04:41:02.239Z,17.69
2017-01-06T04:41:42.899Z,17.71
2017-01-06T04:42:23.537Z,17.71
2017-01-06T04:43:04.167Z,17.84
2017-01-06T04:43:44.801Z,17.73
2017-01-06T04:44:25.452Z,17.71
2017-01-06T04:45:06.092Z,17.79
2017-01-06T04:45:46.714Z,17.71
2017-01-06T04:46:27.351Z,17.73
2017-01-06T04:47:07.980Z,17.85
2017-01-06T04:47:48.607Z,17.7
2017-01-06T04:48:29.244Z,17.84
2017-01-06T04:49:09.877Z,17.7
2017-01-06T04:49:50.506Z,17.87
2017-01-06T04:50:31.140Z,17.81
2017-01-06T04:51:11.768Z,17.76
2017-01-06T04:51:52.405Z,17.76
2017-01-06T04:52:33.047Z,17.74
2017-01-06T04:53:13.665Z,17.76
2017-01-06T04:53:54.294Z,17.74
2017-01-06T04:54:34.925Z,17.79
2017-01-06T04:55:15.568Z,17.85
2017-01-06T04:55:56.220Z,17.71
2017-01-06T04:56:36.845Z,17.81
2017-01-06T04:57:17.473Z,17.84
2017-01-06T04:57:58.104Z,17.7
2017-01-06T04:58:38.740Z,17.71
2017-01-06T04:59:19.392Z,17.78
2017-01-06T05:00:00.016Z,17.73
2017-01-06T05:00:40.650Z,17.73
2017-01-06T05:01:21.305Z,17.87
2017-01-06T05:02:01.934Z,17.73
2017-01-06T05:02:42.563Z,17.73
2017-01-06T05:03:23.219Z,17.84
2017-01-06T05:04:03.852Z,17.71
2017-01-06T05:04:44.473Z,17.73
2017-01-06T05:05:25.185Z,17.81
2017-01-06T05:06:05.834Z,17.76
2017-01-06T05:06:46.500Z,17.79
2017-01-06T05:07:27.141Z,17.84
2017-01-06T05:08:07.768Z,17.84
2017-01-06T05:08:48.425Z,17.88
2017-01-06T05:09:29.077Z,17.78
2017-01-06T05:10:09.703Z,17.71
2017-01-06T05:10:50.339Z,17.71
2017-01-06T05:11:30.972Z,17.85
2017-01-06T05:12:11.606Z,17.76
2017-01-06T05:12:52.280Z,17.76
2017-01-06T05:13:32.939Z,17.71
2017-01-06T05:14:13.569Z,17.74
2017-01-06T05:14:54.223Z,17.81
2017-01-06T05:15:34.875Z,17.74
2017-01-06T05:16:15.501Z,17.81
2017-01-06T05:16:56.160Z,17.73
2017-01-06T05:17:36.808Z,17.78
2017-01-06T05:18:17.438Z,17.79
2017-01-06T05:18:58.085Z,17.79
2017-01-06T05:19:38.726Z,17.79
2017-01-06T05:20:19.358Z,17.76
2017-01-06T05:20:59.978Z,17.79
2017-01-06T05:21:40.623Z,17.73
2017-01-06T05:22:22.059Z,17.69
2017-01-06T05:23:02.688Z,17.78
2017-01-06T05:23:43.320Z,17.74
2017-01-06T05:24:23.959Z,17.74
2017-01-06T05:25:04.578Z,17.76
2017-01-06T05:25:45.224Z,17.78
2017-01-06T05:26:25.868Z,17.81
2017-01-06T05:27:06.506Z,17.74
2017-01-06T05:27:47.148Z,17.79
2017-01-06T05:28:27.861Z,17.81
2017-01-06T05:29:08.492Z,17.73
2017-01-06T05:29:49.133Z,17.78
2017-01-06T05:30:29.779Z,17.71
2017-01-06T05:31:10.418Z,17.76
2017-01-06T05:31:51.054Z,17.73
2017-01-06T05:32:31.699Z,17.67
2017-01-06T05:33:12.335Z,17.76
2017-01-06T05:33:52.985Z,17.73
2017-01-06T05:34:33.623Z,17.67
2017-01-06T05:35:14.263Z,17.79
2017-01-06T05:35:54.972Z,17.79
2017-01-06T05:36:35.608Z,17.71
2017-01-06T05:37:16.232Z,17.59
2017-01-06T05:37:56.873Z,17.71
2017-01-06T05:38:37.497Z,17.67
2017-01-06T05:39:18.129Z,17.67
2017-01-06T05:39:58.767Z,17.7
2017-01-06T05:40:39.395Z,17.62
2017-01-06T05:41:20.020Z,17.71
2017-01-06T05:42:00.747Z,17.78
2017-01-06T05:42:41.389Z,17.78
2017-01-06T05:43:22.103Z,17.66
2017-01-06T05:44:02.760Z,17.79
2017-01-06T05:44:43.382Z,17.84
2017-01-06T05:45:24.012Z,17.74
2017-01-06T05:46:04.659Z,17.73
2017-01-06T05:46:45.315Z,17.76
2017-01-06T05:47:25.956Z,17.71
2017-01-06T05:48:06.682Z,17.73
2017-01-06T05:48:47.323Z,17.63
2017-01-06T05:49:27.954Z,17.67
2017-01-06T05:50:08.577Z,17.63
2017-01-06T05:50:49.217Z,17.64
2017-01-06T05:51:29.921Z,17.7
2017-01-06T05:52:10.550Z,17.62
2017-01-06T05:52:51.205Z,17.64
2017-01-06T05:53:31.865Z,17.67
2017-01-06T05:54:12.501Z,17.67
2017-01-06T05:54:53.146Z,17.63
2017-01-06T05:55:33.834Z,17.64
2017-01-06T05:56:14.468Z,17.64
2017-01-06T05:56:55.112Z,17.64
2017-01-06T05:57:35.751Z,17.64
2017-01-06T05:58:16.369Z,17.64
2017-01-06T05:58:57.029Z,17.7
2017-01-06T05:59:37.661Z,17.64
2017-01-06T06:00:18.296Z,17.64
2017-01-06T06:00:58.930Z,17.62
2017-01-06T06:01:39.568Z,17.66
2017-01-06T06:02:20.252Z,17.66
2017-01-06T06:03:00.876Z,17.62
2017-01-06T06:03:41.530Z,17.7
2017-01-06T06:04:22.222Z,17.64
2017-01-06T06:05:02.785Z,17.64
2017-01-06T06:05:43.421Z,17.64
2017-01-06T06:06:24.073Z,17.63
2017-01-06T06:07:04.796Z,17.63
2017-01-06T06:07:45.430Z,17.59
2017-01-06T06:08:27.213Z,17.62
2017-01-06T06:09:08.805Z,17.64
2017-01-06T06:09:49.543Z,17.62
2017-01-06T06:10:30.209Z,17.67
2017-01-06T06:11:10.853Z,17.63
2017-01-06T06:11:51.500Z,17.66
2017-01-06T06:12:32.218Z,17.64
2017-01-06T06:13:12.871Z,17.64
2017-01-06T06:13:53.501Z,17.59
2017-01-06T06:14:34.123Z,17.57
2017-01-06T06:15:14.763Z,17.67
2017-01-06T06:15:55.401Z,17.62
2017-01-06T06:16:36.035Z,17.64
2017-01-06T06:17:16.662Z,17.64
2017-01-06T06:17:57.301Z,17.62
2017-01-06T06:18:37.951Z,17.63
2017-01-06T06:19:18.581Z,17.63
2017-01-06T06:19:59.203Z,17.66
2017-01-06T06:20:39.831Z,17.63
2017-01-06T06:21:20.454Z,17.66
2017-01-06T06:22:01.156Z,17.59
2017-01-06T06:22:41.778Z,17.59
2017-01-06T06:23:22.527Z,17.55
2017-01-06T06:24:03.169Z,17.57
2017-01-06T06:24:43.808Z,17.62
2017-01-06T06:25:24.474Z,17.59
2017-01-06T06:26:05.119Z,17.57
2017-01-06T06:26:45.742Z,17.67
2017-01-06T06:27:26.380Z,17.67
2017-01-06T06:28:07.022Z,17.62
2017-01-06T06:28:47.653Z,17.59
2017-01-06T06:29:28.331Z,17.59
2017-01-06T06:30:08.975Z,17.55
2017-01-06T06:30:49.599Z,17.57
2017-01-06T06:31:30.232Z,17.54
2017-01-06T06:32:10.869Z,17.59
2017-01-06T06:32:51.502Z,17.57
2017-01-06T06:33:32.135Z,17.59
2017-01-06T06:34:12.766Z,17.59
2017-01-06T06:34:53.398Z,17.64
2017-01-06T06:35:34.042Z,17.59
2017-01-06T06:36:14.664Z,17.59
2017-01-06T06:36:55.295Z,17.63
2017-01-06T06:37:35.968Z,17.66
2017-01-06T06:38:16.593Z,17.59
2017-01-06T06:38:57.229Z,17.59
2017-01-06T06:39:37.867Z,17.63
2017-01-06T06:40:18.532Z,17.54
2017-01-06T06:40:59.179Z,17.62
2017-01-06T06:41:39.923Z,17.54
2017-01-06T06:42:20.583Z,17.59
2017-01-06T06:43:01.219Z,17.63
2017-01-06T06:43:41.907Z,17.64
2017-01-06T06:44:22.540Z,17.59
2017-01-06T06:45:03.186Z,17.57
2017-01-06T06:45:43.892Z,17.59
2017-01-06T06:46:24.517Z,17.57
2017-01-06T06:47:05.165Z,17.62
2017-01-06T06:47:45.807Z,17.59
2017-01-06T06:48:26.436Z,17.62
2017-01-06T06:49:07.069Z,17.63
2017-01-06T06:49:47.706Z,17.57
2017-01-06T06:50:28.340Z,17.66
2017-01-06T06:51:09.025Z,17.62
2017-01-06T06:51:49.651Z,17.64
2017-01-06T06:52:30.375Z,17.55
2017-01-06T06:53:11.030Z,17.7
2017-01-06T06:53:51.685Z,17.64
2017-01-06T06:54:32.337Z,17.62
2017-01-06T06:55:12.964Z,17.57
2017-01-06T06:55:53.625Z,17.57
2017-01-06T06:56:34.255Z,17.62
2017-01-06T06:57:14.887Z,17.57
2017-01-06T06:57:55.515Z,17.55
2017-01-06T06:58:36.179Z,17.55
2017-01-06T06:59:16.809Z,17.63
2017-01-06T06:59:57.449Z,17.62
2017-01-06T07:00:38.067Z,17.63
2017-01-06T07:01:18.705Z,17.63
2017-01-06T07:01:59.340Z,17.53
2017-01-06T07:02:39.968Z,17.51
2017-01-06T07:03:20.597Z,17.59
2017-01-06T07:04:01.234Z,17.57
2017-01-06T07:04:41.862Z,17.57
2017-01-06T07:05:22.491Z,17.62
2017-01-06T07:06:03.198Z,17.57
2017-01-06T07:06:43.827Z,17.54
2017-01-06T07:07:24.459Z,17.64
2017-01-06T07:08:05.149Z,17.63
2017-01-06T07:08:45.799Z,17.57
2017-01-06T07:09:26.432Z,17.59
2017-01-06T07:10:07.072Z,17.59
2017-01-06T07:10:47.701Z,17.55
2017-01-06T07:11:28.321Z,17.54
2017-01-06T07:12:08.967Z,17.55
2017-01-06T07:12:49.599Z,17.53
2017-01-06T07:13:30.232Z,17.51
2017-01-06T07:14:10.864Z,17.51
2017-01-06T07:14:51.516Z,17.54
2017-01-06T07:15:32.149Z,17.59
2017-01-06T07:16:12.812Z,17.55
2017-01-06T07:16:53.453Z,17.55
2017-01-06T07:17:34.108Z,17.54
2017-01-06T07:18:14.738Z,17.55
2017-01-06T07:18:55.392Z,17.59
2017-01-06T07:19:36.040Z,17.53
2017-01-06T07:20:16.677Z,17.55
2017-01-06T07:20:57.386Z,17.55
2017-01-06T07:21:38.023Z,17.55
2017-01-06T07:22:18.659Z,17.57
2017-01-06T07:22:59.308Z,17.55
2017-01-06T07:23:39.944Z,17.57
2017-01-06T07:24:20.573Z,17.55
2017-01-06T07:25:01.273Z,17.54
2017-01-06T07:25:41.923Z,17.62
2017-01-06T07:26:22.599Z,17.55
2017-01-06T07:27:03.225Z,17.55
2017-01-06T07:27:43.853Z,17.57
2017-01-06T07:28:24.485Z,17.55
2017-01-06T07:29:05.143Z,17.63
2017-01-06T07:29:45.821Z,17.57
2017-01-06T07:30:26.403Z,17.59
2017-01-06T07:31:07.043Z,17.51
2017-01-06T07:31:47.672Z,17.44
2017-01-06T07:32:28.285Z,17.59
2017-01-06T07:33:08.930Z,17.48
2017-01-06T07:33:49.550Z,17.5
2017-01-06T07:34:30.185Z,17.54
2017-01-06T07:35:10.814Z,17.44
2017-01-06T07:35:51.449Z,17.5
2017-01-06T07:36:32.113Z,17.48
2017-01-06T07:37:12.762Z,17.44
2017-01-06T07:37:53.416Z,17.47
2017-01-06T07:38:34.066Z,17.5
2017-01-06T07:39:14.706Z,17.53
2017-01-06T07:39:55.331Z,17.55
2017-01-06T07:40:36.030Z,17.57
2017-01-06T07:41:16.682Z,17.51
2017-01-06T07:41:57.348Z,17.46
2017-01-06T07:42:37.992Z,17.47
2017-01-06T07:43:18.633Z,17.5
2017-01-06T07:43:59.261Z,17.5
2017-01-06T07:44:39.896Z,17.47
2017-01-06T07:45:20.575Z,17.53
2017-01-06T07:46:01.199Z,17.41
2017-01-06T07:46:41.825Z,17.48
2017-01-06T07:47:22.568Z,17.46
2017-01-06T07:48:03.329Z,17.43
2017-01-06T07:48:43.966Z,17.4
2017-01-06T07:49:24.623Z,17.41
2017-01-06T07:50:05.367Z,17.46
2017-01-06T07:50:45.978Z,17.44
2017-01-06T07:51:26.616Z,17.44
2017-01-06T07:52:07.244Z,17.53
2017-01-06T07:52:47.878Z,17.48
2017-01-06T07:53:28.513Z,17.44
2017-01-06T07:54:09.142Z,17.54
2017-01-06T07:54:49.784Z,17.59
2017-01-06T07:55:30.450Z,17.46
2017-01-06T07:56:11.095Z,17.44
2017-01-06T07:56:51.751Z,17.5
2017-01-06T07:57:32.405Z,17.47
2017-01-06T07:58:13.054Z,17.5
2017-01-06T07:58:53.682Z,17.54
2017-01-06T07:59:34.361Z,17.54
2017-01-06T08:00:14.998Z,17.48
2017-01-06T08:00:55.704Z,17.47
2017-01-06T08:01:36.330Z,17.46
2017-01-06T08:02:16.970Z,17.46
2017-01-06T08:02:57.631Z,17.46
2017-01-06T08:03:38.284Z,17.44
2017-01-06T08:04:18.928Z,17.46
2017-01-06T08:04:59.554Z,17.46
2017-01-06T08:05:40.192Z,17.48
2017-01-06T08:06:20.839Z,17.43
2017-01-06T08:07:01.602Z,17.47
2017-01-06T08:07:42.249Z,17.46
2017-01-06T08:08:22.900Z,17.43
2017-01-06T08:09:03.591Z,17.4
2017-01-06T08:09:44.230Z,17.4
2017-01-06T08:10:24.864Z,17.4
2017-01-06T08:11:05.516Z,17.43
2017-01-06T08:11:46.187Z,17.4
2017-01-06T08:12:26.817Z,17.38
2017-01-06T08:13:07.496Z,17.46
2017-01-06T08:13:48.132Z,17.38
2017-01-06T08:14:28.788Z,17.48
2017-01-06T08:15:09.455Z,17.4
2017-01-06T08:15:50.075Z,17.41
2017-01-06T08:16:30.706Z,17.41
2017-01-06T08:17:11.394Z,17.4
2017-01-06T08:17:52.046Z,17.47
2017-01-06T08:18:32.695Z,17.43
2017-01-06T08:19:13.322Z,17.43
2017-01-06T08:19:53.965Z,17.5
2017-01-06T08:20:34.601Z,17.4
2017-01-06T08:21:15.225Z,17.41
2017-01-06T08:21:55.863Z,17.44
2017-01-06T08:22:36.513Z,17.44
2017-01-06T08:23:17.161Z,17.47
2017-01-06T08:23:57.786Z,17.38
2017-01-06T08:24:38.423Z,17.46
2017-01-06T08:25:19.059Z,17.36
2017-01-06T08:25:59.792Z,17.48
2017-01-06T08:26:40.437Z,17.4
2017-01-06T08:27:21.086Z,17.4
2017-01-06T08:28:01.782Z,17.4
2017-01-06T08:28:42.413Z,17.4
2017-01-06T08:29:23.046Z,17.36
2017-01-06T08:30:03.763Z,17.4
2017-01-06T08:30:44.400Z,17.41
2017-01-06T08:31:25.034Z,17.46
2017-01-06T08:32:05.706Z,17.44
2017-01-06T08:32:46.334Z,17.43
2017-01-06T08:33:26.970Z,17.44
2017-01-06T08:34:07.614Z,17.41
2017-01-06T08:34:48.262Z,17.48
2017-01-06T08:35:28.895Z,17.36
2017-01-06T08:36:09.525Z,17.4
2017-01-06T08:36:50.188Z,17.4
2017-01-06T08:37:30.835Z,17.36
2017-01-06T08:38:11.554Z,17.38
2017-01-06T08:38:52.230Z,17.41
2017-01-06T08:39:32.863Z,17.41
2017-01-06T08:40:13.517Z,17.38
2017-01-06T08:40:54.188Z,17.46
2017-01-06T08:41:34.818Z,17.41
2017-01-06T08:42:15.463Z,17.36
2017-01-06T08:42:56.094Z,17.4
2017-01-06T08:43:36.720Z,17.47
2017-01-06T08:44:17.365Z,17.41
2017-01-06T08:44:58.020Z,17.38
2017-01-06T08:45:38.656Z,17.4